Time;durP1;ratioP1;P1;durP2;ratioP2;P2;SDS_P1;SDS_P2;PMS_P1;PMS_P2;Temp;Humidity;BMP_temperature;BMP_pressure;BME280_temperature;BME280_humidity;BME280_pressure;Samples;Min_cycle;Max_cycle;Signal;HPM_P1;HPM_P2
2021/04/21 00:00:09;;;;;;;68.93;28.17;;;;;;;7.86;78.12;100507.66;5037562;28;20048;-72
2021/04/21 00:02:35;;;;;;;123.22;48.05;;;;;;;7.90;78.25;100492.47;5033330;28;20030;-72
2021/04/21 00:05:04;;;;;;;53.67;24.25;;;;;;;7.99;78.64;100509.13;5033838;28;20075;-71
2021/04/21 00:07:30;;;;;;;55.92;27.45;;;;;;;8.08;78.78;100504.44;5034438;28;20079;-71
2021/04/21 00:09:56;;;;;;;28.23;15.73;;;;;;;8.24;78.33;100506.91;5034078;28;20025;-70
2021/04/21 00:12:23;;;;;;;23.10;13.00;;;;;;;8.19;77.88;100510.09;5036425;28;20472;-69
2021/04/21 00:14:53;;;;;;;16.73;11.80;;;;;;;7.80;78.89;100487.72;5032742;28;20026;-72
2021/04/21 00:17:22;;;;;;;;;;;;;;;7.99;79.13;100503.97;5032840;28;20495;-68
2021/04/21 00:19:52;;;;;;;37.40;16.92;;;;;;;7.98;78.90;100485.13;5036267;28;20288;-72
2021/04/21 00:22:20;;;;;;;27.42;15.18;;;;;;;8.01;77.27;100505.84;5033699;28;20057;-70
2021/04/21 00:24:47;;;;;;;66.70;29.90;;;;;;;8.08;77.79;100507.88;5034705;28;20467;-70
2021/04/21 00:27:21;;;;;;;22.92;14.23;;;;;;;8.18;77.72;100508.34;5032940;28;20061;-71
2021/04/21 00:29:49;;;;;;;15.20;10.57;;;;;;;7.71;77.36;100477.88;5033333;28;20049;-71
2021/04/21 00:32:17;;;;;;;14.18;9.63;;;;;;;7.68;77.99;100503.41;5032235;28;20037;-70
2021/04/21 00:34:46;;;;;;;12.75;10.20;;;;;;;7.65;78.21;100510.06;5029411;28;20032;-70
2021/04/21 00:37:13;;;;;;;17.95;13.60;;;;;;;7.01;78.05;100383.69;5028767;28;20056;-71
2021/04/21 00:39:41;;;;;;;15.18;11.90;;;;;;;7.67;78.39;100499.06;5035506;28;20033;-72
2021/04/21 00:42:12;;;;;;;17.73;13.20;;;;;;;7.82;78.82;100509.19;5033127;28;20035;-72
2021/04/21 00:45:20;;;;;;;14.73;12.50;;;;;;;7.94;78.25;100517.50;5033529;28;20061;-71
2021/04/21 00:48:04;;;;;;;13.70;11.20;;;;;;;7.99;78.14;100514.25;5008137;28;20695;-71
2021/04/21 00:50:56;;;;;;;14.20;10.50;;;;;;;8.00;78.12;100508.31;5009234;28;20037;-72
2021/04/21 00:53:33;;;;;;;15.02;9.75;;;;;;;7.88;78.37;100511.19;5009684;28;20032;-72
2021/04/21 00:56:14;;;;;;;12.45;9.75;;;;;;;7.87;78.46;100505.16;5007906;28;20033;-71
2021/04/21 00:59:05;;;;;;;13.75;9.48;;;;;;;8.01;77.99;100518.72;5008339;28;20125;-74
2021/04/21 01:01:33;;;;;;;17.23;11.30;;;;;;;8.02;76.75;100538.44;5009056;28;20060;-71
2021/04/21 01:03:59;;;;;;;12.85;10.73;;;;;;;7.86;77.48;100515.38;5009326;28;20559;-72
2021/04/21 01:06:35;;;;;;;13.40;10.35;;;;;;;8.00;77.31;100531.47;5007033;28;20080;-76
2021/04/21 01:09:03;;;;;;;13.52;8.45;;;;;;;7.69;76.47;100538.56;5007970;28;20459;-72
2021/04/21 01:11:31;;;;;;;10.95;8.50;;;;;;;7.63;77.29;100532.22;5009028;28;20068;-71
2021/04/21 01:14:03;;;;;;;17.27;9.80;;;;;;;7.70;77.56;100529.16;5008136;28;20117;-72
2021/04/21 01:16:32;;;;;;;13.80;9.98;;;;;;;7.55;77.99;100495.88;5009056;28;20057;-72
2021/04/21 01:19:02;;;;;;;13.70;9.98;;;;;;;7.71;78.89;100534.41;5008075;28;20077;-72
2021/04/21 01:21:54;;;;;;;13.10;10.52;;;;;;;7.58;78.96;100525.19;5004647;28;20089;-71
2021/04/21 01:24:34;;;;;;;14.73;10.02;;;;;;;7.48;79.83;100525.53;4940081;28;20477;-70
2021/04/21 01:27:07;;;;;;;13.38;10.25;;;;;;;7.56;79.74;100533.63;4952772;28;20490;-70
2021/04/21 01:29:38;;;;;;;13.20;9.98;;;;;;;7.55;79.89;100527.59;4949136;28;20137;-69
2021/04/21 01:32:10;;;;;;;12.00;9.38;;;;;;;7.30;79.21;100476.66;4951952;28;20045;-72
2021/04/21 01:34:38;;;;;;;15.60;10.93;;;;;;;6.98;79.11;100457.97;4954393;28;20125;-70
2021/04/21 01:37:05;;;;;;;14.95;10.20;;;;;;;7.15;80.76;100540.97;4969630;28;20098;-70
2021/04/21 01:39:35;;;;;;;13.27;10.07;;;;;;;7.01;81.91;100529.97;4969512;28;20065;-70
2021/04/21 01:42:02;;;;;;;13.23;10.32;;;;;;;7.19;81.07;100516.34;4970015;28;20042;-70
2021/04/21 01:44:31;;;;;;;12.18;10.13;;;;;;;7.40;80.75;100532.84;4969929;28;20181;-75
2021/04/21 01:47:03;;;;;;;13.50;11.47;;;;;;;7.54;80.36;100530.97;4969863;28;20038;-72
2021/04/21 01:49:35;;;;;;;16.70;14.13;;;;;;;7.57;79.39;100530.25;4974876;28;20034;-73
2021/04/21 01:52:24;;;;;;;13.88;11.65;;;;;;;7.60;79.34;100533.84;4975849;28;20058;-73
2021/04/21 01:54:56;;;;;;;14.88;12.38;;;;;;;7.40;78.92;100520.00;4950505;29;20036;-73
2021/04/21 01:57:38;;;;;;;15.13;10.77;;;;;;;7.14;79.13;100518.69;4965367;28;20043;-73
2021/04/21 02:00:34;;;;;;;14.02;10.50;;;;;;;6.97;81.39;100536.63;4975802;28;20066;-74
2021/04/21 02:03:24;;;;;;;14.80;10.65;;;;;;;6.90;81.27;100544.84;5050462;28;20446;-73
2021/04/21 02:06:03;;;;;;;14.13;11.57;;;;;;;6.82;81.88;100522.13;5063498;28;20036;-73
2021/04/21 02:08:56;;;;;;;20.08;13.07;;;;;;;6.62;80.82;100474.09;5050550;28;20092;-73
2021/04/21 02:11:24;;;;;;;16.40;12.60;;;;;;;6.68;80.50;100491.50;5050446;28;20029;-73
2021/04/21 02:14:00;;;;;;;15.88;12.18;;;;;;;6.93;80.57;100537.28;5050858;28;20526;-73
2021/04/21 02:16:52;;;;;;;18.90;13.18;;;;;;;7.01;79.53;100547.94;5045007;28;20059;-73
2021/04/21 02:19:26;;;;;;;34.17;20.08;;;;;;;7.02;79.60;100557.44;5070207;28;20020;-73
2021/04/21 02:22:10;;;;;;;28.27;14.75;;;;;;;7.15;79.33;100558.06;5070817;28;20053;-72
2021/04/21 02:24:53;;;;;;;23.75;13.95;;;;;;;7.24;78.38;100555.97;5070300;28;20025;-72
2021/04/21 02:27:37;;;;;;;23.42;13.80;;;;;;;7.28;78.18;100550.22;5070313;28;20020;-73
2021/04/21 02:30:13;;;;;;;23.52;14.13;;;;;;;6.93;77.52;100478.25;5045219;28;20021;-72
2021/04/21 02:32:49;;;;;;;26.80;16.20;;;;;;;7.28;76.40;100553.66;5070089;28;20517;-74
2021/04/21 02:35:35;;;;;;;28.17;14.82;;;;;;;6.55;77.74;100477.13;5070446;28;20055;-72
2021/04/21 02:38:29;;;;;;;71.68;35.67;;;;;;;6.96;78.54;100552.84;5069938;28;20758;-73
2021/04/21 02:41:01;;;;;;;29.13;17.85;;;;;;;6.91;77.91;100541.44;4988765;28;20632;-73
2021/04/21 02:43:48;;;;;;;31.73;18.92;;;;;;;6.92;78.48;100539.78;4988557;28;20034;-74
2021/04/21 02:46:29;;;;;;;28.60;16.48;;;;;;;6.52;79.69;100522.25;4988653;28;20034;-73
2021/04/21 02:49:21;;;;;;;23.10;15.05;;;;;;;6.63;79.70;100546.81;4988870;28;20038;-73
2021/04/21 02:52:01;;;;;;;55.30;26.88;;;;;;;6.69;80.08;100538.56;4988692;28;20034;-73
2021/04/21 02:54:36;;;;;;;;;;;;;;;6.88;79.66;100545.53;4989241;28;20038;-73
2021/04/21 02:57:15;;;;;;;24.63;15.43;;;;;;;6.93;78.96;100544.13;4988477;28;19993;-73
2021/04/21 03:00:15;;;;;;;26.25;15.98;;;;;;;6.94;78.04;100551.91;4988580;28;20035;-73
2021/04/21 03:03:05;;;;;;;19.52;13.45;;;;;;;6.84;77.66;100529.13;4892977;29;20047;-72
2021/04/21 03:05:33;;;;;;;20.38;14.52;;;;;;;6.92;78.46;100548.34;4892794;29;20036;-73
2021/04/21 03:08:41;;;;;;;18.73;13.82;;;;;;;6.79;77.30;100544.25;4892987;29;20071;-74
2021/04/21 03:11:16;;;;;;;20.70;14.20;;;;;;;6.87;78.39;100554.06;4857509;29;20517;-73
2021/04/21 03:13:54;;;;;;;18.20;13.05;;;;;;;6.91;78.23;100556.84;4858714;29;20056;-74
2021/04/21 03:16:21;;;;;;;17.02;12.38;;;;;;;6.58;77.41;100559.38;4858950;29;20757;-73
2021/04/21 03:18:49;;;;;;;20.13;14.32;;;;;;;6.49;79.09;100564.00;4917017;29;20108;-73
2021/04/21 03:21:55;;;;;;;21.75;14.13;;;;;;;6.54;79.88;100579.66;4926331;29;20539;-73
2021/04/21 03:24:26;;;;;;;21.63;15.05;;;;;;;6.34;79.51;100540.97;4898764;29;20451;-73
2021/04/21 03:26:55;;;;;;;26.42;15.77;;;;;;;6.65;79.48;100583.69;4914784;29;20040;-73
2021/04/21 03:29:31;;;;;;;25.05;14.48;;;;;;;6.37;79.02;100568.44;4914660;29;20044;-73
2021/04/21 03:32:02;;;;;;;22.00;14.07;;;;;;;6.17;78.96;100581.06;4914600;29;20036;-73
2021/04/21 03:34:28;;;;;;;20.08;12.27;;;;;;;6.19;79.95;100601.66;4914668;29;20159;-71
2021/04/21 03:36:54;;;;;;;14.95;11.30;;;;;;;6.25;81.04;100586.59;4914698;29;20040;-74
2021/04/21 03:39:20;;;;;;;13.98;11.52;;;;;;;6.08;81.59;100550.66;4883060;29;20076;-73
2021/04/21 03:41:46;;;;;;;20.50;14.45;;;;;;;6.10;81.58;100556.75;4914411;29;20181;-71
2021/04/21 03:44:12;;;;;;;23.85;15.95;;;;;;;6.47;81.03;100598.94;4914510;29;20043;-74
2021/04/21 03:46:38;;;;;;;19.90;14.52;;;;;;;6.39;80.25;100589.94;4914303;29;20028;-73
2021/04/21 03:49:06;;;;;;;15.90;12.18;;;;;;;6.53;79.89;100607.00;4970653;28;20588;-72
2021/04/21 03:51:32;;;;;;;14.55;10.88;;;;;;;6.47;79.87;100615.22;4923646;28;20540;-73
2021/04/21 03:54:01;;;;;;;14.55;12.57;;;;;;;6.40;80.24;100618.22;4972009;28;20527;-73
2021/04/21 03:56:29;;;;;;;18.58;13.38;;;;;;;6.35;80.05;100621.34;4971697;28;20031;-72
2021/04/21 03:58:55;;;;;;;15.65;12.40;;;;;;;6.31;80.47;100633.09;4939790;28;20501;-73
2021/04/21 04:01:22;;;;;;;16.63;12.40;;;;;;;6.18;81.08;100628.97;5018106;28;20119;-73
2021/04/21 04:03:51;;;;;;;18.38;12.15;;;;;;;5.67;80.89;100550.03;5072976;28;20375;-73
2021/04/21 04:06:26;;;;;;;17.20;11.07;;;;;;;6.00;82.09;100626.22;5054941;28;20119;-73
2021/04/21 04:08:57;;;;;;;16.38;10.93;;;;;;;5.57;82.70;100557.97;5072211;28;20409;-73
2021/04/21 04:11:27;;;;;;;17.77;12.15;;;;;;;5.90;83.01;100582.91;5072480;28;20098;-73
2021/04/21 04:13:56;;;;;;;;;;;;;;;6.35;82.29;100627.34;5058335;28;20469;-76
2021/04/21 04:16:23;;;;;;;16.95;11.32;;;;;;;5.95;81.80;100561.84;5065531;28;20016;-73
2021/04/21 04:18:51;;;;;;;14.65;10.38;;;;;;;6.50;81.87;100637.56;5052570;28;20072;-73
2021/04/21 04:21:18;;;;;;;15.43;10.35;;;;;;;6.15;81.40;100560.44;5052081;28;20136;-73
2021/04/21 04:23:45;;;;;;;15.65;11.38;;;;;;;6.70;81.09;100633.56;5052069;28;20037;-72
2021/04/21 04:26:13;;;;;;;13.75;10.73;;;;;;;6.78;80.43;100639.13;5057215;28;20036;-73
2021/04/21 04:28:39;;;;;;;13.07;10.18;;;;;;;6.84;80.25;100642.03;5051802;28;20028;-75
2021/04/21 04:31:07;;;;;;;13.65;10.05;;;;;;;6.41;80.70;100573.84;5052031;28;20039;-74
2021/04/21 04:33:33;;;;;;;23.50;11.85;;;;;;;6.86;80.60;100630.16;5052165;28;20100;-73
2021/04/21 04:35:58;;;;;;;23.73;17.27;;;;;;;6.94;81.08;100644.28;5051707;28;20064;-75
2021/04/21 04:38:24;;;;;;;27.55;21.05;;;;;;;6.62;82.11;100593.78;5052284;28;20076;-71
2021/04/21 04:40:54;;;;;;;26.15;17.05;;;;;;;6.56;82.56;100572.94;5051474;28;20060;-73
2021/04/21 04:43:22;;;;;;;20.10;16.38;;;;;;;6.95;82.99;100637.47;5034162;28;20547;-73
2021/04/21 04:45:58;;;;;;;32.25;20.17;;;;;;;7.12;82.85;100658.91;5032944;28;20036;-73
2021/04/21 04:48:51;;;;;;;24.80;17.52;;;;;;;7.01;83.70;100657.47;5050498;28;20064;-74
2021/04/21 04:51:20;;;;;;;17.75;13.95;;;;;;;6.94;84.01;100659.69;5009333;28;20042;-72
2021/04/21 04:53:46;;;;;;;21.77;15.20;;;;;;;6.47;84.41;100583.56;5006562;28;20084;-73
2021/04/21 04:56:12;;;;;;;20.60;14.68;;;;;;;6.62;85.50;100629.69;5009498;28;20512;-73
2021/04/21 04:58:41;;;;;;;18.42;14.38;;;;;;;6.63;86.17;100616.94;4992613;28;20041;-74
2021/04/21 05:01:08;;;;;;;21.48;16.15;;;;;;;7.11;85.54;100650.31;5001011;28;20038;-73
2021/04/21 05:03:42;;;;;;;24.77;17.70;;;;;;;6.88;84.66;100586.59;5009475;28;20022;-73
2021/04/21 05:06:11;;;;;;;28.15;16.67;;;;;;;7.43;83.99;100661.44;5007838;28;20866;-74
2021/04/21 05:08:45;;;;;;;23.00;16.58;;;;;;;7.52;83.66;100658.47;5008982;28;20045;-79
2021/04/21 05:11:16;;;;;;;21.17;15.98;;;;;;;7.67;83.44;100662.63;5009362;28;20072;-73
2021/04/21 05:13:47;;;;;;;21.52;16.45;;;;;;;7.68;83.55;100636.16;5009277;28;20026;-73
2021/04/21 05:16:13;;;;;;;26.85;16.70;;;;;;;7.98;83.69;100671.94;5007725;28;20034;-73
2021/04/21 05:19:09;;;;;;;21.60;15.70;;;;;;;8.05;82.80;100671.41;5009048;28;20480;-73
2021/04/21 05:21:48;;;;;;;24.20;19.00;;;;;;;8.20;83.17;100677.34;4998994;28;20535;-75
2021/04/21 05:24:45;;;;;;;20.92;17.35;;;;;;;8.31;83.63;100675.31;5007317;28;20042;-73
2021/04/21 05:27:42;;;;;;;21.80;16.38;;;;;;;8.37;84.04;100677.28;4975339;28;20042;-72
2021/04/21 05:30:29;;;;;;;21.48;16.75;;;;;;;8.50;83.51;100674.53;4964459;28;20497;-75
2021/04/21 05:33:03;;;;;;;23.70;18.08;;;;;;;8.53;83.83;100677.25;4963612;28;20047;-75
2021/04/21 05:35:55;;;;;;;24.10;18.15;;;;;;;8.62;83.68;100683.66;4967801;28;20086;-72
2021/04/21 05:38:44;;;;;;;24.27;19.10;;;;;;;8.85;83.95;100671.91;4949913;28;20073;-71
2021/04/21 05:41:34;;;;;;;23.27;19.23;;;;;;;8.88;81.80;100672.94;4961526;28;20051;-74
2021/04/21 05:44:52;;;;;;;22.95;18.25;;;;;;;8.95;82.58;100673.19;4962890;28;20135;-74
2021/04/21 05:47:55;;;;;;;22.23;17.38;;;;;;;9.20;81.41;100670.06;4953981;28;20478;-74
2021/04/21 05:51:12;;;;;;;24.08;19.27;;;;;;;9.12;83.02;100673.97;4953204;28;20050;-74
2021/04/21 05:53:47;;;;;;;24.90;19.92;;;;;;;9.18;81.03;100671.69;4836893;29;20094;-74
2021/04/21 05:56:43;;;;;;;30.38;22.58;;;;;;;9.29;81.89;100664.44;4837321;29;20178;-73
2021/04/21 05:59:30;;;;;;;24.55;19.33;;;;;;;9.13;81.48;100621.66;4837229;29;20129;-76
2021/04/21 06:01:56;;;;;;;25.83;20.77;;;;;;;9.56;82.31;100669.97;4837280;29;20125;-75
2021/04/21 06:04:25;;;;;;;22.50;17.30;;;;;;;9.84;82.13;100676.31;4837212;29;20066;-74
2021/04/21 06:07:06;;;;;;;20.95;18.20;;;;;;;9.70;80.52;100629.31;4907018;29;20040;-74
2021/04/21 06:09:32;;;;;;;19.92;17.00;;;;;;;10.14;80.28;100675.84;4911853;29;20044;-74
2021/04/21 06:12:09;;;;;;;20.38;17.27;;;;;;;10.32;78.52;100676.63;4911662;29;20139;-77
2021/04/21 06:14:35;;;;;;;24.60;18.42;;;;;;;10.50;78.27;100686.88;4911499;29;20559;-74
2021/04/21 06:17:01;;;;;;;22.92;17.67;;;;;;;10.58;77.63;100671.69;4911554;29;20062;-74
2021/04/21 06:19:27;;;;;;;21.30;17.30;;;;;;;10.56;79.23;100685.34;4907310;29;20068;-73
2021/04/21 06:21:53;;;;;;;20.75;17.45;;;;;;;10.48;80.02;100667.84;4909099;29;20056;-75
2021/04/21 06:24:21;;;;;;;18.83;16.83;;;;;;;10.81;80.03;100689.78;4911364;29;20079;-75
2021/04/21 06:26:47;;;;;;;20.45;16.95;;;;;;;10.99;80.36;100693.09;4911668;29;20036;-76
2021/04/21 06:29:13;;;;;;;20.67;16.95;;;;;;;11.14;79.65;100686.72;4953719;28;20034;-73
2021/04/21 06:31:44;;;;;;;19.30;17.20;;;;;;;11.20;77.88;100678.34;5050642;28;20453;-74
2021/04/21 06:34:11;;;;;;;18.58;15.77;;;;;;;11.24;77.40;100680.22;5049465;28;20060;-74
2021/04/21 06:36:58;;;;;;;18.83;15.68;;;;;;;11.43;76.98;100680.06;5050515;28;20032;-74
2021/04/21 06:39:25;;;;;;;21.00;16.20;;;;;;;11.28;76.50;100635.59;5044522;28;20483;-75
2021/04/21 06:42:01;;;;;;;19.55;17.27;;;;;;;11.48;76.36;100668.19;5048519;28;20024;-74
2021/04/21 06:44:43;;;;;;;17.75;15.50;;;;;;;11.69;76.04;100681.84;5050538;28;20021;-72
2021/04/21 06:47:22;;;;;;;18.35;16.20;;;;;;;11.65;74.45;100673.09;5054051;28;20029;-74
2021/04/21 06:50:17;;;;;;;16.10;13.65;;;;;;;11.49;66.97;100685.47;5054222;28;20107;-74
2021/04/21 06:52:43;;;;;;;14.18;11.02;;;;;;;11.05;65.44;100645.91;5004124;28;20041;-74
2021/04/21 06:55:12;;;;;;;13.05;11.38;;;;;;;11.26;67.11;100696.66;5011979;28;20041;-74
2021/04/21 06:57:38;;;;;;;15.40;13.23;;;;;;;11.23;68.56;100675.88;5011744;28;20533;-75
2021/04/21 07:00:22;;;;;;;14.00;10.50;;;;;;;10.81;64.13;100632.97;5011678;28;20369;-74
2021/04/21 07:02:51;;;;;;;14.55;11.20;;;;;;;11.14;67.71;100708.28;5011181;28;20107;-75
2021/04/21 07:05:27;;;;;;;13.00;11.02;;;;;;;11.23;64.64;100699.16;5011772;28;20547;-76
2021/04/21 07:08:11;;;;;;;13.98;10.32;;;;;;;11.19;64.80;100692.97;5011874;28;20037;-75
2021/04/21 07:10:47;;;;;;;26.98;17.17;;;;;;;11.38;65.62;100680.75;4992155;28;20125;-75
2021/04/21 07:13:36;;;;;;;15.68;12.80;;;;;;;11.70;66.34;100704.28;5000749;28;20105;-75
2021/04/21 07:16:09;;;;;;;19.50;14.82;;;;;;;11.62;68.22;100684.19;5011635;28;20573;-75
2021/04/21 07:18:39;;;;;;;16.55;12.52;;;;;;;11.41;66.57;100642.06;5011713;28;20033;-75
2021/04/21 07:21:07;;;;;;;13.80;10.30;;;;;;;11.86;62.47;100711.78;5011527;28;20385;-74
2021/04/21 07:23:36;;;;;;;14.02;11.15;;;;;;;11.83;64.01;100706.50;5011562;28;20069;-74
2021/04/21 07:26:03;;;;;;;12.20;10.60;;;;;;;11.95;63.24;100718.97;5011540;28;20044;-74
2021/04/21 07:28:29;;;;;;;15.25;11.23;;;;;;;11.90;63.28;100700.72;5000305;28;20040;-75
2021/04/21 07:30:56;;;;;;;12.93;10.38;;;;;;;11.67;62.56;100666.28;5062213;28;20028;-75
2021/04/21 07:33:37;;;;;;;12.38;10.50;;;;;;;12.10;62.59;100721.25;5073833;28;20023;-72
2021/04/21 07:36:08;;;;;;;16.58;10.63;;;;;;;12.23;63.09;100712.22;5073328;28;20032;-74
2021/04/21 07:38:38;;;;;;;14.18;10.77;;;;;;;12.09;62.71;100698.81;5073012;28;20479;-74
2021/04/21 07:41:04;;;;;;;13.13;10.90;;;;;;;12.10;62.03;100664.31;5073208;28;20036;-74
2021/04/21 07:43:36;;;;;;;13.48;10.90;;;;;;;12.52;62.72;100696.78;5073159;28;20035;-74
2021/04/21 07:46:02;;;;;;;15.02;9.68;;;;;;;12.57;61.06;100718.50;5073063;28;20036;-74
2021/04/21 07:48:33;;;;;;;11.98;10.50;;;;;;;12.60;61.99;100726.41;5072919;28;20024;-75
2021/04/21 07:51:24;;;;;;;12.27;9.70;;;;;;;12.57;60.35;100724.59;5073274;28;20103;-75
2021/04/21 07:53:54;;;;;;;11.45;9.85;;;;;;;12.50;62.24;100722.63;4991713;28;20035;-75
2021/04/21 07:56:22;;;;;;;16.00;10.80;;;;;;;12.18;63.21;100654.25;4981099;28;20117;-75
2021/04/21 07:58:49;;;;;;;18.50;14.20;;;;;;;12.66;62.08;100718.84;4957493;28;20047;-78
2021/04/21 08:01:16;;;;;;;10.13;8.85;;;;;;;12.64;60.67;100707.53;4966716;28;20038;-75
2021/04/21 08:03:42;;;;;;;10.20;8.85;;;;;;;12.79;60.42;100720.09;4991563;28;20046;-75
2021/04/21 08:06:07;;;;;;;10.82;8.32;;;;;;;12.78;61.00;100724.41;4991679;28;20500;-75
2021/04/21 08:08:35;;;;;;;11.45;8.70;;;;;;;12.92;59.28;100717.06;4991867;28;20034;-75
2021/04/21 08:11:02;;;;;;;12.73;8.38;;;;;;;12.85;60.18;100707.34;4991574;28;20073;-73
2021/04/21 08:13:41;;;;;;;12.50;10.10;;;;;;;12.93;61.27;100728.31;4991811;28;20425;-74
2021/04/21 08:16:23;;;;;;;14.48;9.45;;;;;;;12.77;62.45;100720.06;4991646;28;20118;-75
2021/04/21 08:18:48;;;;;;;11.48;10.10;;;;;;;13.13;62.90;100725.47;4991470;28;20062;-75
2021/04/21 08:21:34;;;;;;;10.93;9.52;;;;;;;13.29;60.69;100695.69;4991266;28;20521;-75
2021/04/21 08:24:14;;;;;;;11.05;9.10;;;;;;;13.52;60.76;100712.84;4990977;28;20050;-75
2021/04/21 08:26:47;;;;;;;12.93;10.55;;;;;;;13.15;61.56;100648.63;4991469;28;20041;-75
2021/04/21 08:29:14;;;;;;;11.60;10.15;;;;;;;13.82;63.59;100717.13;4991190;28;20556;-75
2021/04/21 08:31:58;;;;;;;12.07;9.00;;;;;;;13.85;60.21;100711.13;5043287;28;20041;-75
2021/04/21 08:34:23;;;;;;;14.55;11.77;;;;;;;14.09;59.21;100710.91;5052697;28;20471;-75
2021/04/21 08:36:49;;;;;;;9.93;8.55;;;;;;;13.76;57.98;100649.50;5052851;28;20044;-75
2021/04/21 08:39:14;;;;;;;10.63;9.25;;;;;;;14.26;59.12;100700.09;5052821;28;20104;-75
2021/04/21 08:41:42;;;;;;;10.18;8.23;;;;;;;14.29;57.57;100705.34;5052323;28;20104;-75
2021/04/21 08:44:09;;;;;;;8.27;7.38;;;;;;;14.27;54.87;100681.06;5052557;28;20057;-76
2021/04/21 08:46:36;;;;;;;8.65;7.72;;;;;;;14.19;56.57;100639.31;5052287;28;20037;-75
2021/04/21 08:49:02;;;;;;;8.73;7.18;;;;;;;14.68;56.60;100691.66;5052853;28;20031;-76
2021/04/21 08:51:30;;;;;;;8.80;6.72;;;;;;;14.36;54.52;100645.81;5052537;28;20533;-76
2021/04/21 08:54:09;;;;;;;12.02;8.35;;;;;;;14.70;54.28;100693.44;5052084;28;20017;-76
2021/04/21 08:56:38;;;;;;;19.48;12.85;;;;;;;14.91;54.54;100686.97;5052291;28;20475;-76
2021/04/21 08:59:09;;;;;;;7.78;6.55;;;;;;;14.90;53.45;100680.00;5047080;28;20072;-77
2021/04/21 09:01:35;;;;;;;8.73;6.78;;;;;;;14.95;53.68;100672.31;5040177;28;20034;-77
2021/04/21 09:04:01;;;;;;;7.47;6.68;;;;;;;15.10;54.63;100682.16;5051801;28;20036;-76
2021/04/21 09:06:26;;;;;;;6.95;6.00;;;;;;;14.71;52.54;100626.72;5052372;28;20471;-71
2021/04/21 09:08:52;;;;;;;23.52;13.90;;;;;;;15.24;54.18;100674.66;5051487;28;20124;-72
2021/04/21 09:11:19;;;;;;;7.53;6.25;;;;;;;15.55;50.74;100676.16;5051996;28;20476;-73
2021/04/21 09:13:46;;;;;;;7.07;6.03;;;;;;;15.46;51.99;100673.38;5044882;28;20029;-74
2021/04/21 09:16:11;;;;;;;8.40;6.30;;;;;;;15.57;52.39;100668.41;5048793;28;20530;-76
2021/04/21 09:18:58;;;;;;;7.47;6.18;;;;;;;15.50;50.53;100659.56;5048599;28;20041;-78
2021/04/21 09:21:31;;;;;;;12.00;8.05;;;;;;;15.77;52.08;100663.56;5005751;28;20064;-75
2021/04/21 09:23:57;;;;;;;7.60;6.28;;;;;;;15.79;51.74;100630.66;5009050;28;20042;-77
2021/04/21 09:26:25;;;;;;;10.23;6.80;;;;;;;15.81;52.18;100610.72;5006860;28;20037;-77
2021/04/21 09:28:56;;;;;;;8.55;6.18;;;;;;;15.81;49.22;100606.41;5009421;28;20026;-77
2021/04/21 09:31:25;;;;;;;7.97;6.15;;;;;;;16.00;49.07;100646.69;5008484;28;20065;-78
2021/04/21 09:34:13;;;;;;;6.97;5.80;;;;;;;16.27;50.89;100647.97;5008953;28;20080;-77
2021/04/21 09:36:42;;;;;;;7.40;6.13;;;;;;;15.52;48.37;100526.06;5009308;28;20121;-78
2021/04/21 09:39:08;;;;;;;7.82;6.75;;;;;;;16.20;47.02;100621.81;5009370;28;20065;-78
2021/04/21 09:41:34;;;;;;;9.02;7.22;;;;;;;16.62;48.58;100642.47;5008859;28;20034;-78
2021/04/21 09:44:28;;;;;;;8.60;6.38;;;;;;;16.81;46.11;100627.09;5009092;28;20032;-78
2021/04/21 09:46:55;;;;;;;7.70;6.20;;;;;;;16.73;45.25;100631.31;5007800;28;20103;-78
2021/04/21 09:49:31;;;;;;;8.80;6.47;;;;;;;16.91;46.52;100625.47;5013339;28;20041;-80
2021/04/21 09:52:21;;;;;;;7.00;6.30;;;;;;;17.19;46.57;100626.72;5016099;28;20049;-79
2021/04/21 09:55:06;;;;;;;;;;;;;;;17.40;43.22;100626.13;4950030;28;20039;-77
2021/04/21 09:57:34;;;;;;;7.50;6.13;;;;;;;17.49;46.49;100609.69;4950106;28;19958;-77
2021/04/21 10:00:18;;;;;;;13.93;11.43;;;;;;;17.47;45.80;100595.75;4966256;28;20132;-77
2021/04/21 10:02:43;;;;;;;8.77;7.30;;;;;;;17.61;42.74;100578.47;4967522;28;20139;-77
2021/04/21 10:05:29;;;;;;;8.73;6.65;;;;;;;18.04;41.91;100616.34;4968992;28;20224;-79
2021/04/21 10:08:18;;;;;;;9.63;7.70;;;;;;;18.19;42.21;100603.38;4979321;28;20023;-80
2021/04/21 10:11:05;;;;;;;8.50;6.22;;;;;;;18.46;43.04;100620.16;4969627;28;20062;-80
2021/04/21 10:13:45;;;;;;;26.73;16.70;;;;;;;18.12;43.75;100580.72;4959117;28;20532;-78
2021/04/21 10:16:11;;;;;;;7.80;6.80;;;;;;;17.88;42.69;100602.22;4969152;28;20035;-78
2021/04/21 10:18:37;;;;;;;12.25;8.80;;;;;;;17.66;42.95;100624.63;4969232;28;20441;-78
2021/04/21 10:21:04;;;;;;;7.43;6.57;;;;;;;17.66;41.52;100617.69;4972216;28;20054;-80
2021/04/21 10:23:30;;;;;;;9.57;7.00;;;;;;;17.46;43.78;100599.22;4971739;28;20157;-74
2021/04/21 10:26:01;;;;;;;11.43;7.10;;;;;;;16.93;46.23;100595.97;4973171;28;20070;-75
2021/04/21 10:28:27;;;;;;;7.53;6.63;;;;;;;17.10;46.40;100624.03;4973516;28;20596;-75
2021/04/21 10:30:53;;;;;;;7.95;6.07;;;;;;;16.96;46.07;100603.84;4977598;28;20043;-76
2021/04/21 10:33:19;;;;;;;7.13;6.10;;;;;;;16.86;44.15;100601.97;5012292;28;20113;-76
2021/04/21 10:35:45;;;;;;;6.93;6.22;;;;;;;16.93;44.31;100598.56;5045168;28;20033;-75
2021/04/21 10:38:15;;;;;;;7.47;6.60;;;;;;;16.75;45.78;100588.75;5053868;28;20091;-75
2021/04/21 10:40:41;;;;;;;8.95;6.68;;;;;;;16.91;47.88;100610.75;5054491;28;20440;-80
2021/04/21 10:43:07;;;;;;;7.50;6.13;;;;;;;16.84;45.98;100602.78;5051808;28;20110;-76
2021/04/21 10:45:45;;;;;;;12.27;7.47;;;;;;;17.09;45.52;100619.66;5053696;28;20518;-75
2021/04/21 10:48:11;;;;;;;8.57;6.78;;;;;;;17.12;44.84;100602.31;5053979;28;20033;-76
2021/04/21 10:50:42;;;;;;;9.15;6.53;;;;;;;17.10;44.15;100608.38;5051652;28;20479;-77
2021/04/21 10:53:20;;;;;;;8.48;7.57;;;;;;;17.12;45.11;100627.50;5057754;28;20029;-74
2021/04/21 10:55:45;;;;;;;13.30;6.60;;;;;;;16.97;43.77;100621.25;5062972;28;20025;-75
2021/04/21 10:58:13;;;;;;;7.35;6.47;;;;;;;17.01;44.85;100610.84;5053505;28;20486;-76
2021/04/21 11:00:40;;;;;;;8.25;6.32;;;;;;;16.88;44.53;100563.72;5057831;28;20024;-76
2021/04/21 11:03:19;;;;;;;7.82;6.20;;;;;;;17.10;44.96;100616.19;5067261;28;20383;-76
2021/04/21 11:05:58;;;;;;;23.38;13.20;;;;;;;17.30;44.15;100621.66;5073873;28;20025;-76
2021/04/21 11:08:29;;;;;;;17.10;11.45;;;;;;;17.06;44.21;100555.28;5024853;28;20423;-76
2021/04/21 11:11:03;;;;;;;9.05;7.32;;;;;;;17.19;45.05;100626.72;5053882;28;20056;-76
2021/04/21 11:13:28;;;;;;;13.23;10.32;;;;;;;17.10;46.23;100626.63;5052653;28;20021;-75
2021/04/21 11:15:55;;;;;;;9.88;7.28;;;;;;;17.02;46.72;100613.47;5055999;28;20510;-75
2021/04/21 11:18:23;;;;;;;8.63;6.90;;;;;;;16.87;46.66;100636.72;5063292;28;20123;-74
2021/04/21 11:20:48;;;;;;;8.73;7.10;;;;;;;16.69;46.66;100639.94;5053350;28;20511;-76
2021/04/21 11:24:03;;;;;;;8.18;6.45;;;;;;;16.63;46.40;100640.72;5053122;28;20025;-75
2021/04/21 11:26:30;;;;;;;9.75;7.20;;;;;;;16.22;47.52;100641.81;5064856;28;20025;-76
2021/04/21 11:29:27;;;;;;;9.30;7.07;;;;;;;16.06;49.22;100643.28;5053017;28;20017;-76
2021/04/21 11:31:52;;;;;;;12.05;8.82;;;;;;;16.21;48.49;100645.28;5054673;28;20035;-77
2021/04/21 11:34:19;;;;;;;9.75;8.57;;;;;;;15.46;48.11;100525.94;5062660;28;20024;-75
2021/04/21 11:37:00;;;;;;;11.13;7.70;;;;;;;16.09;48.26;100643.34;5053984;28;20071;-76
2021/04/21 11:39:50;;;;;;;11.70;8.07;;;;;;;16.00;49.59;100636.25;5050349;28;20051;-77
2021/04/21 11:42:36;;;;;;;10.75;8.23;;;;;;;16.00;50.74;100631.06;5054246;28;20025;-76
2021/04/21 11:45:25;;;;;;;10.70;7.95;;;;;;;16.11;50.25;100630.34;5054581;28;20478;-78
2021/04/21 11:48:00;;;;;;;8.90;6.47;;;;;;;16.14;49.22;100635.63;5050364;28;20017;-75
2021/04/21 11:50:32;;;;;;;7.47;5.78;;;;;;;15.78;49.54;100584.63;5059552;28;20021;-74